Time;durP1;ratioP1;P1;durP2;ratioP2;P2;SDS_P1;SDS_P2;PMS_P1;PMS_P2;Temp;Humidity;BMP_temperature;BMP_pressure;BME280_temperature;BME280_humidity;BME280_pressure;Samples;Min_cycle;Max_cycle;Signal;HPM_P1;HPM_P2
2022/09/06 00:10:32;;;;;;;;;8.00;5.00;;;;;;;;5004287;28;45677;-84
2022/09/06 00:32:38;;;;;;;;;7.67;6.67;;;;;;;;4829779;29;45817;-88
2022/09/06 00:35:31;;;;;;;;;7.00;7.00;;;;;;;;4844598;29;45498;-89
2022/09/06 00:38:35;;;;;;;;;4.67;4.00;;;;;;;;4892674;29;44866;-90
2022/09/06 00:41:27;;;;;;;;;6.00;5.00;;;;;;;;4907137;28;45482;-87
2022/09/06 00:47:37;;;;;;;;;;;;;;;;;;;;;
2022/09/06 00:50:38;;;;;;;;;4.67;4.67;;;;;;;;5053944;28;67794;-86
2022/09/06 01:03:02;;;;;;;;;5.00;3.33;;;;;;;;4968853;28;45485;-86
2022/09/06 01:06:05;;;;;;;;;;;;;;;;;;;;;
2022/09/06 01:08:56;;;;;;;;;8.33;5.33;;;;;;;;4964521;28;75266;-84
2022/09/06 01:11:27;;;;;;;;;5.00;5.00;;;;;;;;4994736;28;45789;-88
2022/09/06 01:14:03;;;;;;;;;6.00;4.00;;;;;;;;5026322;28;45773;-86
2022/09/06 01:16:34;;;;;;;;;6.67;6.67;;;;;;;;5065104;28;44817;-86
2022/09/06 01:19:11;;;;;;;;;6.67;6.00;;;;;;;;5073700;28;45461;-86
2022/09/06 01:22:00;;;;;;;;;10.00;7.33;;;;;;;;5067780;28;45473;-85
2022/09/06 01:24:44;;;;;;;;;4.00;4.00;;;;;;;;5041939;28;45372;-86
2022/09/06 01:27:31;;;;;;;;;6.67;6.67;;;;;;;;5053131;28;45832;-86
2022/09/06 01:30:18;;;;;;;;;7.33;6.33;;;;;;;;5043582;28;45508;-86
2022/09/06 01:33:08;;;;;;;;;6.00;6.00;;;;;;;;5055726;27;45521;-85
2022/09/06 01:35:45;;;;;;;;;9.67;7.00;;;;;;;;5063266;28;45379;-87
2022/09/06 01:38:17;;;;;;;;;10.33;8.00;;;;;;;;5047351;28;45812;-85
2022/09/06 01:40:52;;;;;;;;;6.00;6.00;;;;;;;;5045681;28;45412;-84
2022/09/06 01:43:24;;;;;;;;;7.67;6.67;;;;;;;;5043967;28;45506;-88
2022/09/06 01:46:00;;;;;;;;;6.00;6.00;;;;;;;;5047830;28;45458;-86
2022/09/06 01:48:38;;;;;;;;;6.00;5.67;;;;;;;;5063902;28;45457;-86
2022/09/06 01:51:27;;;;;;;;;6.33;6.33;;;;;;;;5048738;28;46956;-88
2022/09/06 01:54:44;;;;;;;;;;;;;;;;;;;;;
2022/09/06 01:57:40;;;;;;;;;7.33;7.33;;;;;;;;5053785;28;67865;-87
2022/09/06 02:03:45;;;;;;;;;5.67;5.33;;;;;;;;4992807;28;45381;-82
2022/09/06 02:06:23;;;;;;;;;6.67;4.67;;;;;;;;5029142;28;45914;-86
2022/09/06 02:09:14;;;;;;;;;7.33;7.33;;;;;;;;5046013;28;45489;-86
2022/09/06 02:12:19;;;;;;;;;6.33;6.33;;;;;;;;5064128;28;45742;-83
2022/09/06 02:17:58;;;;;;;;;3.00;3.00;;;;;;;;5056887;28;45415;-87
2022/09/06 02:20:47;;;;;;;;;8.00;6.67;;;;;;;;5060958;28;45613;-87
2022/09/06 02:23:27;;;;;;;;;;;;;;;;;;;;;
2022/09/06 02:26:04;;;;;;;;;8.33;4.67;;;;;;;;5030490;28;76032;-88
2022/09/06 02:28:54;;;;;;;;;6.33;5.00;;;;;;;;5076783;27;45578;-88
2022/09/06 02:31:36;;;;;;;;;8.67;7.67;;;;;;;;5070003;27;45936;-88
2022/09/06 02:34:05;;;;;;;;;7.00;7.00;;;;;;;;5092812;27;45512;-84
2022/09/06 02:36:55;;;;;;;;;11.33;7.67;;;;;;;;5100708;27;45784;-87
2022/09/06 02:39:24;;;;;;;;;8.33;8.33;;;;;;;;5104775;27;45525;-84
2022/09/06 02:42:06;;;;;;;;;5.33;5.33;;;;;;;;5105025;27;44862;-85
2022/09/06 02:44:51;;;;;;;;;5.67;5.67;;;;;;;;5083667;27;45556;-87
2022/09/06 02:47:55;;;;;;;;;10.33;8.33;;;;;;;;5086966;27;45908;-88
2022/09/06 02:50:29;;;;;;;;;9.67;9.00;;;;;;;;5085282;27;45408;-87
2022/09/06 02:53:10;;;;;;;;;9.67;8.33;;;;;;;;5072507;27;45764;-86
2022/09/06 02:55:41;;;;;;;;;12.00;8.33;;;;;;;;5073527;28;45828;-85
2022/09/06 02:58:24;;;;;;;;;11.00;8.67;;;;;;;;5082419;27;45369;-87
2022/09/06 03:01:06;;;;;;;;;8.67;8.67;;;;;;;;5074522;27;45382;-88
2022/09/06 03:03:32;;;;;;;;;8.67;8.67;;;;;;;;5093265;27;45389;-86
2022/09/06 03:06:02;;;;;;;;;11.00;9.33;;;;;;;;5069874;27;45771;-88
2022/09/06 03:08:35;;;;;;;;;7.33;6.00;;;;;;;;5069196;27;45399;-86
2022/09/06 03:11:54;;;;;;;;;;;;;;;;;;;;;
2022/09/06 03:13:54;;;;;;;;;10.33;9.67;;;;;;;;5077183;27;45714;-87
2022/09/06 03:16:55;;;;;;;;;;;;;;;;;;;;;
2022/09/06 03:19:23;;;;;;;;;11.33;7.67;;;;;;;;5097989;27;46455;-89
2022/09/06 03:22:15;;;;;;;;;13.00;8.67;;;;;;;;5067232;28;45844;-85
2022/09/06 03:25:19;;;;;;;;;12.00;9.33;;;;;;;;5072285;27;45404;-87
2022/09/06 03:28:16;;;;;;;;;10.67;8.33;;;;;;;;5075789;27;45498;-88
2022/09/06 03:34:09;;;;;;;;;8.67;7.67;;;;;;;;4962746;28;45851;-82
2022/09/06 03:36:52;;;;;;;;;7.00;7.00;;;;;;;;5060652;27;45606;-81
2022/09/06 03:39:18;;;;;;;;;10.33;6.67;;;;;;;;5058158;28;45879;-82
2022/09/06 03:41:43;;;;;;;;;6.00;6.00;;;;;;;;5060459;27;46683;-82
2022/09/06 03:44:09;;;;;;;;;9.00;5.33;;;;;;;;5061694;27;45423;-83
2022/09/06 03:46:38;;;;;;;;;9.00;8.33;;;;;;;;5071532;28;45750;-82
2022/09/06 03:49:03;;;;;;;;;12.00;8.67;;;;;;;;5078223;27;45785;-81
2022/09/06 03:51:28;;;;;;;;;10.33;7.33;;;;;;;;5088450;27;45642;-82
2022/09/06 03:54:19;;;;;;;;;12.00;8.00;;;;;;;;5055239;27;45364;-81
2022/09/06 03:56:47;;;;;;;;;10.33;9.33;;;;;;;;5053531;27;45385;-84
2022/09/06 03:59:18;;;;;;;;;11.67;10.00;;;;;;;;5077932;27;45559;-81
2022/09/06 04:01:46;;;;;;;;;11.00;8.67;;;;;;;;5076486;28;46210;-82
2022/09/06 04:04:12;;;;;;;;;9.33;9.33;;;;;;;;5074724;27;45793;-81
2022/09/06 04:06:37;;;;;;;;;9.67;8.67;;;;;;;;5074592;27;45345;-80
2022/09/06 04:09:02;;;;;;;;;11.00;11.00;;;;;;;;5057876;27;45555;-79
2022/09/06 04:11:28;;;;;;;;;10.33;9.33;;;;;;;;5068612;27;48081;-79
2022/09/06 04:13:53;;;;;;;;;14.33;13.00;;;;;;;;5076514;27;45315;-78
2022/09/06 04:16:18;;;;;;;;;9.00;9.00;;;;;;;;5075331;27;45416;-78
2022/09/06 04:18:44;;;;;;;;;10.33;8.33;;;;;;;;5055962;27;45814;-79
2022/09/06 04:21:09;;;;;;;;;7.67;7.67;;;;;;;;5056177;28;47797;-79
2022/09/06 04:48:44;;;;;;;;;12.00;10.33;;;;;;;;4927564;28;45378;-80
2022/09/06 05:06:51;;;;;;;;;9.00;8.00;;;;;;;;5088878;27;45351;-83
2022/09/06 05:09:17;;;;;;;;;7.67;7.67;;;;;;;;5037843;27;45351;-77
2022/09/06 05:11:42;;;;;;;;;7.67;7.67;;;;;;;;5079277;27;45392;-77
2022/09/06 05:17:34;;;;;;;;;6.33;6.33;;;;;;;;5017461;28;45605;-79
2022/09/06 05:20:00;;;;;;;;;8.33;8.33;;;;;;;;5020576;28;47750;-82
2022/09/06 05:22:43;;;;;;;;;8.67;7.67;;;;;;;;5081577;27;45828;-80
2022/09/06 05:25:35;;;;;;;;;10.00;10.00;;;;;;;;5063614;28;45425;-81
2022/09/06 05:28:03;;;;;;;;;14.00;10.67;;;;;;;;5040463;28;45571;-81
2022/09/06 05:30:32;;;;;;;;;12.33;11.67;;;;;;;;5053038;28;46562;-80
2022/09/06 05:33:44;;;;;;;;;8.67;7.33;;;;;;;;5075745;27;45777;-80
2022/09/06 05:36:18;;;;;;;;;6.67;6.67;;;;;;;;5074403;27;45866;-81
2022/09/06 05:38:50;;;;;;;;;10.67;8.33;;;;;;;;5050217;28;46201;-83
2022/09/06 05:42:00;;;;;;;;;8.67;8.67;;;;;;;;5056005;27;46121;-83
2022/09/06 05:45:01;;;;;;;;;11.00;8.67;;;;;;;;5071244;27;45570;-84
2022/09/06 05:47:39;;;;;;;;;7.67;5.33;;;;;;;;5066835;27;45745;-81
2022/09/06 05:50:08;;;;;;;;;6.33;5.33;;;;;;;;5050668;28;45998;-82
2022/09/06 05:53:13;;;;;;;;;;;;;;;;;;;;;
2022/09/06 05:55:45;;;;;;;;;9.00;7.33;;;;;;;;5068091;27;45814;-83
2022/09/06 05:58:11;;;;;;;;;6.67;6.67;;;;;;;;5074639;27;45006;-83
2022/09/06 06:00:46;;;;;;;;;9.33;8.00;;;;;;;;5056821;28;45994;-83
2022/09/06 06:03:42;;;;;;;;;;;;;;;;;;;;;
2022/09/06 06:06:45;;;;;;;;;7.67;7.67;;;;;;;;5072782;27;71509;-87
2022/09/06 06:15:44;;;;;;;;;7.67;7.67;;;;;;;;4945977;28;46072;-81
2022/09/06 06:21:38;;;;;;;;;9.75;7.25;;;;;;;;5047037;28;45404;-84
2022/09/06 06:30:14;;;;;;;;;6.50;6.50;;;;;;;;5064421;28;45307;-81
2022/09/06 06:42:53;;;;;;;;;;;;;;;;;;;;;
2022/09/06 06:48:22;;;;;;;;;6.50;5.50;;;;;;;;4933971;28;45984;-89
2022/09/06 06:50:48;;;;;;;;;6.00;6.00;;;;;;;;4928473;28;46054;-88
2022/09/06 06:53:13;;;;;;;;;10.50;8.25;;;;;;;;4955061;28;45497;-88
2022/09/06 06:55:47;;;;;;;;;5.75;5.75;;;;;;;;5008306;28;46494;-88
2022/09/06 06:58:12;;;;;;;;;7.25;7.25;;;;;;;;5068853;28;44745;-89
2022/09/06 07:00:39;;;;;;;;;6.00;6.00;;;;;;;;5071578;28;45370;-88
2022/09/06 07:03:05;;;;;;;;;10.25;8.50;;;;;;;;5047715;28;45927;-86
2022/09/06 07:05:32;;;;;;;;;7.00;7.00;;;;;;;;5048025;28;45493;-86
2022/09/06 07:08:01;;;;;;;;;5.75;4.75;;;;;;;;5053014;28;47244;-91
2022/09/06 07:10:27;;;;;;;;;4.50;3.25;;;;;;;;5056916;28;46802;-92
2022/09/06 07:13:18;;;;;;;;;7.00;7.00;;;;;;;;5093615;27;45606;-91
2022/09/06 07:15:46;;;;;;;;;8.75;5.25;;;;;;;;5088229;27;45306;-90
2022/09/06 07:18:15;;;;;;;;;7.50;6.50;;;;;;;;5070631;27;45749;-88
2022/09/06 07:20:41;;;;;;;;;4.00;4.00;;;;;;;;5082150;28;47244;-88
2022/09/06 07:23:06;;;;;;;;;10.75;6.25;;;;;;;;5089846;27;45389;-90
2022/09/06 07:25:33;;;;;;;;;5.00;5.00;;;;;;;;5078028;27;45648;-89
2022/09/06 07:28:02;;;;;;;;;7.00;7.00;;;;;;;;5101050;27;45378;-89
2022/09/06 07:30:33;;;;;;;;;6.25;5.00;;;;;;;;5098442;27;45501;-89
2022/09/06 07:33:04;;;;;;;;;5.00;5.00;;;;;;;;5115275;27;45456;-90
2022/09/06 07:35:32;;;;;;;;;3.75;3.75;;;;;;;;5101298;27;45661;-91
2022/09/06 07:38:10;;;;;;;;;7.00;6.25;;;;;;;;5095716;27;44759;-89
2022/09/06 07:40:39;;;;;;;;;4.25;4.25;;;;;;;;5078574;27;45362;-92
2022/09/06 07:43:11;;;;;;;;;5.25;5.25;;;;;;;;5079588;28;45360;-92
2022/09/06 07:45:46;;;;;;;;;6.00;4.50;;;;;;;;5092369;27;45641;-91
2022/09/06 07:51:26;;;;;;;;;6.00;4.50;;;;;;;;5046048;27;45392;-92
2022/09/06 07:54:12;;;;;;;;;4.50;4.50;;;;;;;;5106886;27;45324;-91
2022/09/06 07:56:50;;;;;;;;;3.00;3.00;;;;;;;;5079552;28;44752;-89
2022/09/06 07:59:18;;;;;;;;;3.25;3.25;;;;;;;;5106940;27;45146;-90
2022/09/06 08:02:07;;;;;;;;;6.00;4.25;;;;;;;;5118673;27;45348;-91
2022/09/06 08:04:36;;;;;;;;;5.00;5.00;;;;;;;;5094471;27;44837;-93
2022/09/06 08:07:03;;;;;;;;;3.00;3.00;;;;;;;;5091653;27;44732;-91
2022/09/06 08:09:39;;;;;;;;;5.00;4.25;;;;;;;;5104973;27;45004;-92
2022/09/06 08:12:23;;;;;;;;;2.50;2.50;;;;;;;;5092775;27;45329;-91
2022/09/06 08:14:55;;;;;;;;;8.25;8.00;;;;;;;;5094309;27;45472;-88
2022/09/06 08:17:22;;;;;;;;;7.00;7.00;;;;;;;;5077510;27;45519;-79
2022/09/06 08:19:48;;;;;;;;;7.00;4.50;;;;;;;;5075146;27;45918;-80
2022/09/06 08:22:16;;;;;;;;;3.00;3.00;;;;;;;;5077175;27;45839;-80
2022/09/06 08:24:42;;;;;;;;;4.50;4.50;;;;;;;;5079380;27;45708;-77
2022/09/06 08:27:07;;;;;;;;;4.00;4.00;;;;;;;;5076071;27;45846;-79
2022/09/06 08:29:33;;;;;;;;;5.00;3.00;;;;;;;;5077461;27;45585;-80
2022/09/06 08:31:58;;;;;;;;;2.50;2.50;;;;;;;;5076801;27;47384;-79
2022/09/06 08:34:24;;;;;;;;;6.00;4.25;;;;;;;;5076764;27;45198;-80
2022/09/06 08:36:49;;;;;;;;;1.00;1.00;;;;;;;;5076547;27;45469;-81
2022/09/06 08:39:15;;;;;;;;;3.00;3.00;;;;;;;;5060363;28;45362;-81
2022/09/06 08:41:59;;;;;;;;;6.00;5.00;;;;;;;;5071126;27;45688;-80
2022/09/06 08:44:37;;;;;;;;;4.75;4.00;;;;;;;;5082655;27;45298;-80
2022/09/06 08:47:06;;;;;;;;;6.00;3.50;;;;;;;;5088630;27;45801;-81
2022/09/06 08:49:34;;;;;;;;;4.75;4.75;;;;;;;;5067021;27;45634;-78
2022/09/06 08:52:05;;;;;;;;;5.00;4.67;;;;;;;;5071221;27;46529;-77
2022/09/06 08:54:40;;;;;;;;;6.50;3.50;;;;;;;;5080525;27;46183;-77
2022/09/06 08:57:24;;;;;;;;;4.25;4.25;;;;;;;;5085193;27;45465;-79
2022/09/06 08:59:52;;;;;;;;;3.25;3.25;;;;;;;;5065431;27;45436;-80
2022/09/06 09:02:19;;;;;;;;;4.50;3.00;;;;;;;;5074246;27;46378;-78
2022/09/06 09:04:47;;;;;;;;;2.75;2.75;;;;;;;;5058087;27;45741;-80
2022/09/06 09:07:28;;;;;;;;;4.75;4.00;;;;;;;;5080846;27;45955;-78
2022/09/06 09:09:55;;;;;;;;;10.25;7.00;;;;;;;;5078834;27;45385;-79
2022/09/06 09:12:22;;;;;;;;;4.00;3.75;;;;;;;;5077881;27;45730;-79
2022/09/06 09:14:50;;;;;;;;;2.00;2.00;;;;;;;;5074461;28;45585;-78
2022/09/06 09:17:21;;;;;;;;;7.25;6.50;;;;;;;;5068584;27;45525;-79
2022/09/06 09:19:47;;;;;;;;;3.00;3.00;;;;;;;;5073213;27;45753;-79
2022/09/06 09:22:16;;;;;;;;;4.50;2.75;;;;;;;;5062881;27;46419;-78
2022/09/06 09:24:51;;;;;;;;;3.25;2.00;;;;;;;;5075119;27;45762;-78
2022/09/06 09:27:23;;;;;;;;;3.00;3.00;;;;;;;;5068979;27;45684;-78
2022/09/06 09:29:55;;;;;;;;;4.00;3.00;;;;;;;;5069382;27;45509;-79
2022/09/06 09:32:40;;;;;;;;;;;;;;;;;;;;;
2022/09/06 09:35:38;;;;;;;;;1.25;1.25;;;;;;;;5059321;27;72165;-79
2022/09/06 09:38:23;;;;;;;;;3.00;3.00;;;;;;;;5064063;27;45524;-79
2022/09/06 09:40:57;;;;;;;;;3.00;3.00;;;;;;;;5076460;27;45936;-80
2022/09/06 09:43:34;;;;;;;;;2.25;2.25;;;;;;;;5061626;27;46896;-79
2022/09/06 09:46:08;;;;;;;;;3.00;3.00;;;;;;;;5078122;27;45749;-80
2022/09/06 09:48:41;;;;;;;;;2.50;2.50;;;;;;;;5074894;27;45678;-79
2022/09/06 09:51:21;;;;;;;;;3.00;3.00;;;;;;;;5078032;27;45455;-77
2022/09/06 09:53:59;;;;;;;;;3.50;3.50;;;;;;;;5076513;27;45680;-78
2022/09/06 09:56:46;;;;;;;;;3.00;2.00;;;;;;;;5080952;27;45810;-79
2022/09/06 09:59:17;;;;;;;;;3.25;2.00;;;;;;;;5072887;27;45592;-78
2022/09/06 10:01:45;;;;;;;;;2.75;2.75;;;;;;;;5073931;27;45414;-80
2022/09/06 10:04:20;;;;;;;;;3.50;2.50;;;;;;;;5078208;27;46441;-78
2022/09/06 10:06:58;;;;;;;;;2.25;2.25;;;;;;;;5064231;28;45805;-80
2022/09/06 10:09:34;;;;;;;;;1.75;1.75;;;;;;;;5054826;27;45477;-81
2022/09/06 10:12:18;;;;;;;;;;;;;;;;;;;;;
2022/09/06 10:14:48;;;;;;;;;3.25;3.25;;;;;;;;5064476;27;76194;-80
2022/09/06 10:17:21;;;;;;;;;2.50;2.50;;;;;;;;5066013;28;45414;-81
2022/09/06 10:19:48;;;;;;;;;3.25;3.25;;;;;;;;5076599;27;45761;-81
2022/09/06 10:22:13;;;;;;;;;3.75;3.75;;;;;;;;5075460;27;45362;-80
2022/09/06 10:24:55;;;;;;;;;3.00;3.00;;;;;;;;5076024;27;46047;-80
2022/09/06 10:27:36;;;;;;;;;2.25;2.25;;;;;;;;5072621;27;45336;-81
2022/09/06 10:30:05;;;;;;;;;3.00;3.00;;;;;;;;5056394;28;45510;-82
2022/09/06 10:32:37;;;;;;;;;4.25;2.50;;;;;;;;5083429;27;45624;-80
2022/09/06 10:35:24;;;;;;;;;3.75;3.25;;;;;;;;5061974;27;45502;-82
2022/09/06 10:38:21;;;;;;;;;2.75;2.25;;;;;;;;5064956;27;45485;-81
2022/09/06 10:41:19;;;;;;;;;2.00;2.00;;;;;;;;5054281;27;45704;-80
2022/09/06 10:44:25;;;;;;;;;3.75;3.00;;;;;;;;5046038;27;45821;-88
2022/09/06 10:47:01;;;;;;;;;2.75;2.75;;;;;;;;5076045;27;45912;-84
2022/09/06 10:49:29;;;;;;;;;4.00;2.50;;;;;;;;5058586;28;45454;-84
2022/09/06 10:52:15;;;;;;;;;2.50;2.50;;;;;;;;5086730;27;45731;-87
2022/09/06 10:55:15;;;;;;;;;4.25;3.00;;;;;;;;5052545;28;46024;-85
2022/09/06 10:57:49;;;;;;;;;4.00;3.00;;;;;;;;5060992;27;45774;-86
2022/09/06 11:00:17;;;;;;;;;3.00;3.00;;;;;;;;5051578;28;45875;-86
2022/09/06 11:02:50;;;;;;;;;2.00;1.75;;;;;;;;5051751;28;45825;-86
2022/09/06 11:05:19;;;;;;;;;3.50;3.50;;;;;;;;5063763;27;45535;-85
2022/09/06 11:07:54;;;;;;;;;2.75;2.75;;;;;;;;5089431;27;45742;-87
2022/09/06 11:10:39;;;;;;;;;3.25;2.00;;;;;;;;5095874;27;45770;-86
2022/09/06 11:13:15;;;;;;;;;3.00;3.00;;;;;;;;5081381;27;45801;-85
2022/09/06 11:15:40;;;;;;;;;4.00;2.25;;;;;;;;5082431;27;45702;-82
2022/09/06 11:18:14;;;;;;;;;3.00;3.00;;;;;;;;5060856;27;45595;-84
2022/09/06 11:20:44;;;;;;;;;3.50;3.50;;;;;;;;5080181;27;45277;-83
2022/09/06 11:26:33;;;;;;;;;3.50;3.50;;;;;;;;5085305;27;45665;-82
2022/09/06 11:29:17;;;;;;;;;7.00;3.50;;;;;;;;4980606;28;45729;-82
2022/09/06 11:32:05;;;;;;;;;4.50;3.00;;;;;;;;5046234;27;45500;-84
2022/09/06 11:34:39;;;;;;;;;3.00;3.00;;;;;;;;5076789;27;45661;-82
2022/09/06 11:37:23;;;;;;;;;2.25;2.25;;;;;;;;5072160;27;45428;-84
2022/09/06 11:40:03;;;;;;;;;3.75;3.25;;;;;;;;5076393;27;45710;-84
2022/09/06 11:42:58;;;;;;;;;4.50;3.00;;;;;;;;5071412;27;45532;-81
2022/09/06 11:45:49;;;;;;;;;2.50;2.50;;;;;;;;5049484;27;45611;-84
2022/09/06 11:48:49;;;;;;;;;2.50;2.00;;;;;;;;5079552;27;45919;-83
2022/09/06 11:51:30;;;;;;;;;3.50;2.25;;;;;;;;5074650;27;45823;-84
2022/09/06 11:54:07;;;;;;;;;3.50;3.50;;;;;;;;5071548;27;44932;-81
2022/09/06 11:56:57;;;;;;;;;2.00;2.00;;;;;;;;5084019;27;45934;-82
2022/09/06 11:59:33;;;;;;;;;3.00;3.00;;;;;;;;5071418;28;45648;-82
2022/09/06 12:02:08;;;;;;;;;1.00;1.00;;;;;;;;5068331;27;46676;-82
2022/09/06 12:04:55;;;;;;;;;2.00;2.00;;;;;;;;5054556;27;45849;-82
2022/09/06 12:07:22;;;;;;;;;3.75;2.00;;;;;;;;5063623;27;45441;-84
2022/09/06 12:09:49;;;;;;;;;2.75;2.75;;;;;;;;5065022;28;45869;-83
2022/09/06 12:12:34;;;;;;;;;5.75;3.00;;;;;;;;5064441;27;47068;-83
2022/09/06 12:15:20;;;;;;;;;5.25;1.50;;;;;;;;5077055;27;45456;-83
2022/09/06 12:17:46;;;;;;;;;3.75;3.00;;;;;;;;5069961;27;45398;-81
2022/09/06 12:20:31;;;;;;;;;2.00;2.00;;;;;;;;5065905;28;46047;-84
2022/09/06 12:23:01;;;;;;;;;3.00;3.00;;;;;;;;5067734;28;45714;-82
2022/09/06 12:25:42;;;;;;;;;4.00;3.75;;;;;;;;5058990;28;45708;-82
2022/09/06 12:28:55;;;;;;;;;4.25;4.00;;;;;;;;5064002;28;45379;-82
2022/09/06 12:31:43;;;;;;;;;3.00;3.00;;;;;;;;5066395;27;45542;-84
2022/09/06 12:34:33;;;;;;;;;5.50;4.50;;;;;;;;5069812;27;45572;-79
2022/09/06 12:37:07;;;;;;;;;5.00;3.50;;;;;;;;5071147;27;45707;-82
2022/09/06 12:39:36;;;;;;;;;3.00;3.00;;;;;;;;5050543;27;44848;-82
2022/09/06 12:42:04;;;;;;;;;3.00;2.00;;;;;;;;5076065;27;46049;-81
2022/09/06 12:44:38;;;;;;;;;1.50;1.50;;;;;;;;5095005;27;46267;-82
2022/09/06 12:47:09;;;;;;;;;2.25;2.00;;;;;;;;5062340;28;45355;-82
2022/09/06 12:49:44;;;;;;;;;3.00;2.00;;;;;;;;5062193;27;45419;-83
2022/09/06 12:52:10;;;;;;;;;1.50;1.50;;;;;;;;5075229;27;45588;-81
2022/09/06 12:54:55;;;;;;;;;1.50;1.00;;;;;;;;5093126;27;45602;-83
2022/09/06 12:57:30;;;;;;;;;1.75;1.75;;;;;;;;5044465;28;45499;-81
2022/09/06 13:00:09;;;;;;;;;4.75;3.00;;;;;;;;5077267;27;45430;-80
2022/09/06 13:02:50;;;;;;;;;42.00;35.00;;;;;;;;5059623;28;45367;-79
2022/09/06 13:05:16;;;;;;;;;5.50;5.00;;;;;;;;5061126;27;46974;-81
2022/09/06 13:07:43;;;;;;;;;2.75;2.75;;;;;;;;5090138;27;45220;-81
2022/09/06 13:10:14;;;;;;;;;3.75;2.00;;;;;;;;5081237;27;45445;-82
2022/09/06 13:12:44;;;;;;;;;2.00;2.00;;;;;;;;5046668;28;45898;-79
2022/09/06 13:15:12;;;;;;;;;3.50;2.00;;;;;;;;5074481;27;45766;-81
2022/09/06 13:17:41;;;;;;;;;2.00;2.00;;;;;;;;5066896;28;45866;-81
2022/09/06 13:20:19;;;;;;;;;1.00;1.00;;;;;;;;5064772;27;45748;-83
2022/09/06 13:22:50;;;;;;;;;2.00;2.00;;;;;;;;5073166;27;45446;-80
2022/09/06 13:25:22;;;;;;;;;2.00;2.00;;;;;;;;5083244;27;45620;-80
2022/09/06 13:27:56;;;;;;;;;2.00;2.00;;;;;;;;5091871;27;45532;-79
2022/09/06 13:30:45;;;;;;;;;3.75;2.75;;;;;;;;5055614;28;45529;-82
2022/09/06 13:33:25;;;;;;;;;1.75;1.75;;;;;;;;5079987;27;45783;-82
2022/09/06 13:36:12;;;;;;;;;1.25;1.25;;;;;;;;5063385;27;47198;-82
2022/09/06 13:38:58;;;;;;;;;3.25;3.25;;;;;;;;5034255;28;44789;-81
2022/09/06 13:41:25;;;;;;;;;3.50;3.50;;;;;;;;5070357;27;45532;-81
2022/09/06 13:43:59;;;;;;;;;3.50;3.50;;;;;;;;5097227;27;45515;-80
2022/09/06 13:46:25;;;;;;;;;4.50;3.75;;;;;;;;5063952;27;47107;-81
2022/09/06 13:48:59;;;;;;;;;3.25;3.25;;;;;;;;5075297;27;45450;-81
2022/09/06 13:51:27;;;;;;;;;3.25;3.25;;;;;;;;5084198;27;45826;-80
2022/09/06 13:54:09;;;;;;;;;5.00;4.00;;;;;;;;5063012;28;45431;-81
2022/09/06 13:56:43;;;;;;;;;5.00;4.00;;;;;;;;5060382;27;45836;-80
2022/09/06 13:59:10;;;;;;;;;6.50;6.00;;;;;;;;5057251;27;45856;-81
2022/09/06 14:01:40;;;;;;;;;3.50;3.50;;;;;;;;5077331;27;45476;-81
2022/09/06 14:04:06;;;;;;;;;5.25;4.25;;;;;;;;5049830;27;45790;-81
2022/09/06 14:06:40;;;;;;;;;4.00;4.00;;;;;;;;5092216;27;45716;-80
2022/09/06 14:09:08;;;;;;;;;4.75;3.00;;;;;;;;5061384;27;45804;-81
2022/09/06 14:11:55;;;;;;;;;4.75;4.75;;;;;;;;5069921;27;45421;-81
2022/09/06 14:14:46;;;;;;;;;3.75;3.75;;;;;;;;5041703;28;45859;-81
2022/09/06 14:17:22;;;;;;;;;;;;;;;;;;;;;
2022/09/06 14:19:48;;;;;;;;;1.50;1.50;;;;;;;;5046736;28;73891;-80
2022/09/06 14:22:14;;;;;;;;;4.75;4.75;;;;;;;;5052303;28;45645;-80
2022/09/06 14:24:39;;;;;;;;;4.75;3.25;;;;;;;;5056894;27;45617;-80
2022/09/06 14:27:07;;;;;;;;;4.25;4.25;;;;;;;;5056694;28;47426;-80
2022/09/06 14:29:34;;;;;;;;;6.50;6.00;;;;;;;;5037042;28;45630;-82
2022/09/06 14:32:09;;;;;;;;;4.25;4.25;;;;;;;;5040837;28;45708;-82
2022/09/06 14:34:42;;;;;;;;;4.50;4.50;;;;;;;;5067066;28;45587;-80
2022/09/06 14:37:07;;;;;;;;;4.00;4.00;;;;;;;;5048675;28;45679;-82
2022/09/06 14:39:37;;;;;;;;;8.00;4.75;;;;;;;;5064647;28;45732;-82
2022/09/06 14:42:02;;;;;;;;;5.50;5.50;;;;;;;;5051539;28;45581;-81
2022/09/06 14:44:27;;;;;;;;;2.50;2.50;;;;;;;;5055001;28;45695;-80
2022/09/06 14:46:58;;;;;;;;;6.25;4.50;;;;;;;;5052244;28;45392;-84
2022/09/06 14:49:24;;;;;;;;;3.00;3.00;;;;;;;;5054310;28;45430;-80
2022/09/06 14:51:52;;;;;;;;;4.00;4.00;;;;;;;;5060104;28;45442;-82
2022/09/06 14:54:38;;;;;;;;;4.25;4.00;;;;;;;;5059005;28;45522;-90
2022/09/06 14:57:04;;;;;;;;;3.00;3.00;;;;;;;;5060959;28;45563;-85
2022/09/06 14:59:29;;;;;;;;;3.50;3.50;;;;;;;;5058869;28;45466;-83
2022/09/06 15:01:56;;;;;;;;;5.25;4.00;;;;;;;;5057041;28;45510;-83
2022/09/06 15:04:32;;;;;;;;;3.00;3.00;;;;;;;;5057608;28;46456;-86
2022/09/06 15:06:58;;;;;;;;;3.25;3.25;;;;;;;;5032735;28;45972;-82
2022/09/06 15:09:24;;;;;;;;;3.50;3.50;;;;;;;;5055156;28;45388;-82
2022/09/06 15:11:50;;;;;;;;;5.25;4.75;;;;;;;;5052753;28;45604;-83
2022/09/06 15:14:39;;;;;;;;;5.00;3.00;;;;;;;;5079651;27;45506;-81
2022/09/06 15:17:14;;;;;;;;;2.75;2.75;;;;;;;;5073046;27;46162;-77
2022/09/06 15:19:43;;;;;;;;;4.25;3.75;;;;;;;;5065018;27;45730;-77
2022/09/06 15:23:05;;;;;;;;;3.00;3.00;;;;;;;;5068143;27;45386;-79
2022/09/06 15:25:31;;;;;;;;;4.50;3.00;;;;;;;;5022862;28;45644;-84
2022/09/06 15:28:08;;;;;;;;;;;;;;;;;;;;;
2022/09/06 15:30:38;;;;;;;;;15.00;12.67;;;;;;;;5082592;27;71921;-84
2022/09/06 15:33:10;;;;;;;;;3.75;3.75;;;;;;;;5095956;27;44725;-83
2022/09/06 15:35:38;;;;;;;;;7.00;5.75;;;;;;;;5081584;27;45905;-81
2022/09/06 15:38:04;;;;;;;;;2.75;2.75;;;;;;;;5089681;27;45330;-85
2022/09/06 15:40:29;;;;;;;;;5.00;3.00;;;;;;;;5095225;27;45270;-83
2022/09/06 15:42:55;;;;;;;;;3.50;3.25;;;;;;;;5095374;27;44787;-83
2022/09/06 15:45:34;;;;;;;;;3.25;2.00;;;;;;;;5072794;27;44796;-79
2022/09/06 15:48:00;;;;;;;;;2.00;2.00;;;;;;;;5051662;28;46630;-77
2022/09/06 15:50:26;;;;;;;;;2.50;2.00;;;;;;;;5069548;27;44887;-85
2022/09/06 15:59:05;;;;;;;;;1.00;1.00;;;;;;;;5088248;27;45523;-78
2022/09/06 16:01:32;;;;;;;;;1.75;1.75;;;;;;;;5094743;27;45302;-81
2022/09/06 16:04:02;;;;;;;;;1.25;1.25;;;;;;;;5100543;27;45467;-77
2022/09/06 16:06:28;;;;;;;;;2.50;2.50;;;;;;;;5088667;27;45561;-71
2022/09/06 16:08:58;;;;;;;;;1.00;1.00;;;;;;;;5067611;27;47258;-79
2022/09/06 16:11:24;;;;;;;;;6.50;3.25;;;;;;;;5067978;27;45480;-71
2022/09/06 16:13:50;;;;;;;;;2.00;2.00;;;;;;;;5076327;27;45908;-76
2022/09/06 16:16:15;;;;;;;;;1.00;1.00;;;;;;;;5087067;27;45738;-75
2022/09/06 16:18:42;;;;;;;;;1.00;1.00;;;;;;;;5079966;27;45444;-77
2022/09/06 16:21:09;;;;;;;;;1.00;1.00;;;;;;;;5085704;27;45405;-78
2022/09/06 16:23:35;;;;;;;;;3.75;2.75;;;;;;;;5085523;27;45499;-77
2022/09/06 16:26:01;;;;;;;;;2.50;2.50;;;;;;;;5083264;27;45795;-76
2022/09/06 16:28:27;;;;;;;;;2.75;2.75;;;;;;;;5087807;27;46347;-76
2022/09/06 16:30:52;;;;;;;;;3.75;3.75;;;;;;;;5069122;27;45871;-76
2022/09/06 16:33:18;;;;;;;;;5.00;5.00;;;;;;;;5094490;27;47523;-74
2022/09/06 16:35:43;;;;;;;;;2.00;2.00;;;;;;;;5080010;27;45507;-76
2022/09/06 16:38:08;;;;;;;;;2.25;2.00;;;;;;;;5087015;27;45645;-76
2022/09/06 16:40:35;;;;;;;;;6.50;5.50;;;;;;;;5082386;27;45522;-77
2022/09/06 16:43:00;;;;;;;;;2.00;2.00;;;;;;;;5087394;27;45249;-77
2022/09/06 16:45:29;;;;;;;;;1.00;1.00;;;;;;;;5078460;27;45603;-77
2022/09/06 16:47:54;;;;;;;;;4.00;2.50;;;;;;;;5071544;27;47912;-75
2022/09/06 16:50:20;;;;;;;;;2.75;2.75;;;;;;;;5089648;27;45494;-78
2022/09/06 16:52:46;;;;;;;;;4.25;3.75;;;;;;;;5064831;27;45726;-75
2022/09/06 16:55:11;;;;;;;;;2.00;2.00;;;;;;;;5098330;27;45569;-79
2022/09/06 16:57:39;;;;;;;;;4.00;2.25;;;;;;;;5098272;27;45621;-84
2022/09/06 17:00:05;;;;;;;;;5.75;4.25;;;;;;;;5082874;27;45139;-82
2022/09/06 17:02:31;;;;;;;;;6.50;3.75;;;;;;;;5100812;27;45381;-83
2022/09/06 17:04:56;;;;;;;;;4.00;2.00;;;;;;;;5100099;27;45701;-77
2022/09/06 17:07:21;;;;;;;;;2.25;2.00;;;;;;;;5071393;27;47578;-81
2022/09/06 17:09:47;;;;;;;;;4.75;2.00;;;;;;;;5075925;27;45719;-80
2022/09/06 17:12:12;;;;;;;;;2.00;2.00;;;;;;;;5088037;27;45461;-78
2022/09/06 17:14:37;;;;;;;;;3.75;3.00;;;;;;;;5082851;27;46495;-82
2022/09/06 17:17:07;;;;;;;;;6.00;4.00;;;;;;;;5096036;27;45691;-78
2022/09/06 17:19:33;;;;;;;;;4.00;2.25;;;;;;;;5094138;27;46246;-79
2022/09/06 17:21:58;;;;;;;;;5.00;4.00;;;;;;;;5096443;27;45795;-77
2022/09/06 17:24:25;;;;;;;;;6.67;4.67;;;;;;;;5088879;27;45708;-79
2022/09/06 17:26:51;;;;;;;;;7.67;5.33;;;;;;;;5085504;27;45400;-79
2022/09/06 17:29:16;;;;;;;;;4.50;4.50;;;;;;;;5093015;27;45688;-74
2022/09/06 17:31:42;;;;;;;;;7.00;7.00;;;;;;;;5075495;27;45585;-73
2022/09/06 17:34:07;;;;;;;;;5.50;5.50;;;;;;;;5080804;27;45414;-74
2022/09/06 17:36:33;;;;;;;;;51.00;39.67;;;;;;;;5087292;27;45622;-71
2022/09/06 17:39:04;;;;;;;;;22.67;21.00;;;;;;;;5089995;27;45866;-75
2022/09/06 17:41:32;;;;;;;;;12.00;10.33;;;;;;;;5080139;27;45428;-73
2022/09/06 17:43:58;;;;;;;;;5.00;3.75;;;;;;;;5096784;27;45393;-74
2022/09/06 17:46:27;;;;;;;;;2.50;2.50;;;;;;;;5091806;27;46694;-77
2022/09/06 17:48:52;;;;;;;;;3.00;3.00;;;;;;;;5075603;27;46630;-73
2022/09/06 17:51:18;;;;;;;;;3.00;3.00;;;;;;;;5088425;27;45454;-79
2022/09/06 17:53:45;;;;;;;;;3.00;3.00;;;;;;;;5089680;27;45464;-79
2022/09/06 17:56:11;;;;;;;;;2.50;2.50;;;;;;;;5079963;27;46086;-78